Terminal Aerodrome Forecast
Issued by NWS

Home | Current Version | Previous Version | Text Only | Print | Product List | Glossary On
Versions: 1 2 3 4 5 6 7 8 9 10 11 12 13 14 15 16 17 18 19 20 21
823
FTUS46 KMTR 212342 AAA
TAFMRY
TAF AMD
KMRY 212342Z 2200/2224 24010KT P6SM SKC
     FM220300 VRB04KT P6SM OVC008
     FM220500 00000KT P6SM OVC006
     FM221900 31009KT P6SM SKC=

USA.gov is the U.S. government's official web portal to all federal, state and local government web resources and services.